sensor_id;sensor_type;location;lat;lon;timestamp;P1;durP1;ratioP1;P2;durP2;ratioP2
72127;SDS011;60000;51.030;7.024;2024-03-02T00:01:06;4.68;;;1.25;;
72127;SDS011;60000;51.030;7.024;2024-03-02T00:03:32;4.35;;;1.63;;
72127;SDS011;60000;51.030;7.024;2024-03-02T00:05:58;4.30;;;1.25;;
72127;SDS011;60000;51.030;7.024;2024-03-02T00:08:24;4.93;;;1.70;;
72127;SDS011;60000;51.030;7.024;2024-03-02T00:10:57;5.05;;;1.75;;
72127;SDS011;60000;51.030;7.024;2024-03-02T00:13:23;4.82;;;1.40;;
72127;SDS011;60000;51.030;7.024;2024-03-02T00:15:55;4.27;;;1.40;;
72127;SDS011;60000;51.030;7.024;2024-03-02T00:18:32;4.32;;;1.23;;
72127;SDS011;60000;51.030;7.024;2024-03-02T00:20:59;6.00;;;2.05;;
72127;SDS011;60000;51.030;7.024;2024-03-02T00:23:31;6.97;;;1.63;;
72127;SDS011;60000;51.030;7.024;2024-03-02T00:25:58;5.20;;;1.70;;
72127;SDS011;60000;51.030;7.024;2024-03-02T00:31:06;4.40;;;1.60;;
72127;SDS011;60000;51.030;7.024;2024-03-02T00:33:46;4.68;;;1.20;;
72127;SDS011;60000;51.030;7.024;2024-03-02T00:36:16;5.05;;;1.50;;
72127;SDS011;60000;51.030;7.024;2024-03-02T00:38:51;4.20;;;1.40;;
72127;SDS011;60000;51.030;7.024;2024-03-02T00:46:29;5.00;;;1.50;;
72127;SDS011;60000;51.030;7.024;2024-03-02T00:49:02;3.70;;;1.10;;
72127;SDS011;60000;51.030;7.024;2024-03-02T00:51:30;3.10;;;1.10;;
72127;SDS011;60000;51.030;7.024;2024-03-02T00:53:59;3.72;;;1.13;;
72127;SDS011;60000;51.030;7.024;2024-03-02T00:56:26;3.40;;;1.20;;
72127;SDS011;60000;51.030;7.024;2024-03-02T00:58:52;4.73;;;1.30;;
72127;SDS011;60000;51.030;7.024;2024-03-02T01:01:17;3.85;;;1.27;;
72127;SDS011;60000;51.030;7.024;2024-03-02T01:03:44;3.78;;;1.10;;
72127;SDS011;60000;51.030;7.024;2024-03-02T01:06:10;3.00;;;1.10;;
72127;SDS011;60000;51.030;7.024;2024-03-02T01:08:35;5.03;;;1.20;;
72127;SDS011;60000;51.030;7.024;2024-03-02T01:11:02;3.90;;;1.15;;
72127;SDS011;60000;51.030;7.024;2024-03-02T01:13:27;4.47;;;1.00;;
72127;SDS011;60000;51.030;7.024;2024-03-02T01:15:53;3.90;;;0.93;;
72127;SDS011;60000;51.030;7.024;2024-03-02T01:18:18;4.23;;;1.27;;
72127;SDS011;60000;51.030;7.024;2024-03-02T01:20:44;3.23;;;1.00;;
72127;SDS011;60000;51.030;7.024;2024-03-02T01:23:09;2.75;;;0.90;;
72127;SDS011;60000;51.030;7.024;2024-03-02T01:25:35;4.43;;;1.30;;
72127;SDS011;60000;51.030;7.024;2024-03-02T01:28:00;3.17;;;1.00;;
72127;SDS011;60000;51.030;7.024;2024-03-02T01:30:26;4.30;;;1.37;;
72127;SDS011;60000;51.030;7.024;2024-03-02T01:32:51;3.30;;;1.20;;
72127;SDS011;60000;51.030;7.024;2024-03-02T01:35:16;4.03;;;1.20;;
72127;SDS011;60000;51.030;7.024;2024-03-02T01:37:42;5.47;;;1.20;;
72127;SDS011;60000;51.030;7.024;2024-03-02T01:40:07;3.70;;;0.90;;
72127;SDS011;60000;51.030;7.024;2024-03-02T01:42:37;3.90;;;0.98;;
72127;SDS011;60000;51.030;7.024;2024-03-02T01:45:05;3.00;;;0.90;;
72127;SDS011;60000;51.030;7.024;2024-03-02T01:47:32;3.97;;;0.98;;
72127;SDS011;60000;51.030;7.024;2024-03-02T01:49:58;2.70;;;0.83;;
72127;SDS011;60000;51.030;7.024;2024-03-02T01:52:24;3.88;;;1.00;;
72127;SDS011;60000;51.030;7.024;2024-03-02T01:54:49;3.70;;;1.00;;
72127;SDS011;60000;51.030;7.024;2024-03-02T01:57:14;2.27;;;0.80;;
72127;SDS011;60000;51.030;7.024;2024-03-02T01:59:40;3.38;;;0.85;;
72127;SDS011;60000;51.030;7.024;2024-03-02T02:02:06;4.10;;;1.10;;
72127;SDS011;60000;51.030;7.024;2024-03-02T02:04:31;3.03;;;1.10;;
72127;SDS011;60000;51.030;7.024;2024-03-02T02:06:56;4.93;;;1.10;;
72127;SDS011;60000;51.030;7.024;2024-03-02T02:09:22;3.80;;;1.10;;
72127;SDS011;60000;51.030;7.024;2024-03-02T02:11:47;4.68;;;1.00;;
72127;SDS011;60000;51.030;7.024;2024-03-02T02:14:13;2.67;;;0.93;;
72127;SDS011;60000;51.030;7.024;2024-03-02T02:16:38;4.20;;;0.90;;
72127;SDS011;60000;51.030;7.024;2024-03-02T02:19:03;3.70;;;1.10;;
72127;SDS011;60000;51.030;7.024;2024-03-02T02:21:29;3.27;;;1.00;;
72127;SDS011;60000;51.030;7.024;2024-03-02T02:23:54;3.90;;;1.20;;
72127;SDS011;60000;51.030;7.024;2024-03-02T02:26:19;4.77;;;1.00;;
72127;SDS011;60000;51.030;7.024;2024-03-02T02:28:44;3.73;;;0.90;;
72127;SDS011;60000;51.030;7.024;2024-03-02T02:31:12;3.33;;;1.00;;
72127;SDS011;60000;51.030;7.024;2024-03-02T02:33:41;3.47;;;1.08;;
72127;SDS011;60000;51.030;7.024;2024-03-02T02:36:07;2.90;;;0.95;;
72127;SDS011;60000;51.030;7.024;2024-03-02T02:38:36;3.83;;;1.10;;
72127;SDS011;60000;51.030;7.024;2024-03-02T02:41:04;3.10;;;1.00;;
72127;SDS011;60000;51.030;7.024;2024-03-02T02:43:29;3.00;;;1.00;;
72127;SDS011;60000;51.030;7.024;2024-03-02T02:45:55;3.80;;;1.20;;
72127;SDS011;60000;51.030;7.024;2024-03-02T02:48:21;3.20;;;1.07;;
72127;SDS011;60000;51.030;7.024;2024-03-02T02:50:46;3.97;;;0.97;;
72127;SDS011;60000;51.030;7.024;2024-03-02T02:53:11;3.55;;;0.90;;
72127;SDS011;60000;51.030;7.024;2024-03-02T02:55:37;4.82;;;1.38;;
72127;SDS011;60000;51.030;7.024;2024-03-02T02:58:05;3.10;;;0.70;;
72127;SDS011;60000;51.030;7.024;2024-03-02T03:00:32;3.00;;;0.80;;
72127;SDS011;60000;51.030;7.024;2024-03-02T03:02:57;3.90;;;1.10;;
72127;SDS011;60000;51.030;7.024;2024-03-02T03:05:23;3.40;;;0.90;;
72127;SDS011;60000;51.030;7.024;2024-03-02T03:07:48;3.17;;;0.80;;
72127;SDS011;60000;51.030;7.024;2024-03-02T03:10:15;3.40;;;0.75;;
72127;SDS011;60000;51.030;7.024;2024-03-02T03:12:41;3.97;;;1.00;;
72127;SDS011;60000;51.030;7.024;2024-03-02T03:15:07;2.95;;;0.95;;
72127;SDS011;60000;51.030;7.024;2024-03-02T03:17:34;4.60;;;1.10;;
72127;SDS011;60000;51.030;7.024;2024-03-02T03:19:59;3.37;;;1.00;;
72127;SDS011;60000;51.030;7.024;2024-03-02T03:22:26;4.18;;;1.27;;
72127;SDS011;60000;51.030;7.024;2024-03-02T03:24:51;4.53;;;1.10;;
72127;SDS011;60000;51.030;7.024;2024-03-02T03:27:16;4.67;;;1.10;;
72127;SDS011;60000;51.030;7.024;2024-03-02T03:29:42;3.65;;;0.98;;
72127;SDS011;60000;51.030;7.024;2024-03-02T03:32:07;4.13;;;1.20;;
72127;SDS011;60000;51.030;7.024;2024-03-02T03:34:33;3.73;;;1.00;;
72127;SDS011;60000;51.030;7.024;2024-03-02T03:36:58;3.30;;;1.23;;
72127;SDS011;60000;51.030;7.024;2024-03-02T03:39:24;4.00;;;1.20;;
72127;SDS011;60000;51.030;7.024;2024-03-02T03:41:49;3.80;;;1.13;;
72127;SDS011;60000;51.030;7.024;2024-03-02T03:44:14;3.80;;;1.17;;
72127;SDS011;60000;51.030;7.024;2024-03-02T03:46:40;4.33;;;1.10;;
72127;SDS011;60000;51.030;7.024;2024-03-02T03:49:05;3.17;;;1.10;;
72127;SDS011;60000;51.030;7.024;2024-03-02T03:51:30;3.00;;;1.00;;
72127;SDS011;60000;51.030;7.024;2024-03-02T03:53:56;4.10;;;1.15;;
72127;SDS011;60000;51.030;7.024;2024-03-02T03:56:21;3.70;;;1.20;;
72127;SDS011;60000;51.030;7.024;2024-03-02T03:58:46;3.43;;;1.03;;
72127;SDS011;60000;51.030;7.024;2024-03-02T04:01:12;5.00;;;1.00;;
72127;SDS011;60000;51.030;7.024;2024-03-02T04:03:37;3.93;;;1.23;;
72127;SDS011;60000;51.030;7.024;2024-03-02T04:06:03;4.55;;;1.10;;
72127;SDS011;60000;51.030;7.024;2024-03-02T04:08:28;3.43;;;1.03;;
72127;SDS011;60000;51.030;7.024;2024-03-02T04:10:54;3.13;;;0.87;;
72127;SDS011;60000;51.030;7.024;2024-03-02T04:13:19;3.70;;;1.20;;
72127;SDS011;60000;51.030;7.024;2024-03-02T04:15:44;5.47;;;1.30;;
72127;SDS011;60000;51.030;7.024;2024-03-02T04:18:10;3.60;;;1.20;;
72127;SDS011;60000;51.030;7.024;2024-03-02T04:20:35;5.22;;;1.35;;
72127;SDS011;60000;51.030;7.024;2024-03-02T04:23:00;4.60;;;1.30;;
72127;SDS011;60000;51.030;7.024;2024-03-02T04:25:26;3.87;;;1.10;;
72127;SDS011;60000;51.030;7.024;2024-03-02T04:27:51;3.97;;;0.97;;
72127;SDS011;60000;51.030;7.024;2024-03-02T04:30:16;3.27;;;1.00;;
72127;SDS011;60000;51.030;7.024;2024-03-02T04:32:42;3.63;;;0.77;;
72127;SDS011;60000;51.030;7.024;2024-03-02T04:35:11;3.60;;;1.23;;
72127;SDS011;60000;51.030;7.024;2024-03-02T04:37:37;3.58;;;1.10;;
72127;SDS011;60000;51.030;7.024;2024-03-02T04:40:03;4.33;;;1.30;;
72127;SDS011;60000;51.030;7.024;2024-03-02T04:42:28;3.70;;;1.03;;
72127;SDS011;60000;51.030;7.024;2024-03-02T04:44:54;3.73;;;1.00;;
72127;SDS011;60000;51.030;7.024;2024-03-02T04:47:19;4.22;;;1.27;;
72127;SDS011;60000;51.030;7.024;2024-03-02T04:49:44;4.07;;;1.00;;
72127;SDS011;60000;51.030;7.024;2024-03-02T04:52:10;3.37;;;1.10;;
72127;SDS011;60000;51.030;7.024;2024-03-02T04:54:35;3.90;;;1.30;;
72127;SDS011;60000;51.030;7.024;2024-03-02T04:57:20;3.67;;;1.13;;
72127;SDS011;60000;51.030;7.024;2024-03-02T04:59:45;2.83;;;1.10;;
72127;SDS011;60000;51.030;7.024;2024-03-02T05:02:11;5.50;;;1.20;;
72127;SDS011;60000;51.030;7.024;2024-03-02T05:04:38;4.40;;;1.23;;
72127;SDS011;60000;51.030;7.024;2024-03-02T05:07:04;3.80;;;0.90;;
72127;SDS011;60000;51.030;7.024;2024-03-02T05:09:29;4.50;;;1.40;;
72127;SDS011;60000;51.030;7.024;2024-03-02T05:11:55;4.20;;;1.10;;
72127;SDS011;60000;51.030;7.024;2024-03-02T05:14:29;4.28;;;1.30;;
72127;SDS011;60000;51.030;7.024;2024-03-02T05:16:54;3.27;;;1.13;;
72127;SDS011;60000;51.030;7.024;2024-03-02T05:19:20;4.40;;;1.30;;
72127;SDS011;60000;51.030;7.024;2024-03-02T05:21:45;3.97;;;1.30;;
72127;SDS011;60000;51.030;7.024;2024-03-02T05:24:10;5.90;;;2.03;;
72127;SDS011;60000;51.030;7.024;2024-03-02T05:26:36;4.97;;;1.20;;
72127;SDS011;60000;51.030;7.024;2024-03-02T05:29:01;5.07;;;1.30;;
72127;SDS011;60000;51.030;7.024;2024-03-02T05:31:27;4.03;;;1.20;;
72127;SDS011;60000;51.030;7.024;2024-03-02T05:33:53;3.97;;;1.20;;
72127;SDS011;60000;51.030;7.024;2024-03-02T05:36:18;4.07;;;1.20;;
72127;SDS011;60000;51.030;7.024;2024-03-02T05:38:45;5.53;;;1.42;;
72127;SDS011;60000;51.030;7.024;2024-03-02T05:41:10;4.07;;;1.30;;
72127;SDS011;60000;51.030;7.024;2024-03-02T05:43:36;4.23;;;1.70;;
72127;SDS011;60000;51.030;7.024;2024-03-02T05:46:02;4.50;;;1.15;;
72127;SDS011;60000;51.030;7.024;2024-03-02T05:48:27;4.10;;;1.13;;
72127;SDS011;60000;51.030;7.024;2024-03-02T05:50:53;4.07;;;1.33;;
72127;SDS011;60000;51.030;7.024;2024-03-02T05:53:18;4.43;;;1.40;;
72127;SDS011;60000;51.030;7.024;2024-03-02T05:55:43;4.63;;;1.10;;
72127;SDS011;60000;51.030;7.024;2024-03-02T05:58:10;5.28;;;1.50;;
72127;SDS011;60000;51.030;7.024;2024-03-02T06:00:57;5.13;;;1.45;;
72127;SDS011;60000;51.030;7.024;2024-03-02T06:03:23;3.37;;;1.30;;
72127;SDS011;60000;51.030;7.024;2024-03-02T06:05:48;4.73;;;1.40;;
72127;SDS011;60000;51.030;7.024;2024-03-02T06:08:14;5.85;;;1.30;;
72127;SDS011;60000;51.030;7.024;2024-03-02T06:10:43;3.87;;;1.20;;
72127;SDS011;60000;51.030;7.024;2024-03-02T06:13:08;4.63;;;1.42;;
72127;SDS011;60000;51.030;7.024;2024-03-02T06:15:33;4.17;;;1.53;;
72127;SDS011;60000;51.030;7.024;2024-03-02T06:18:01;5.00;;;1.38;;
72127;SDS011;60000;51.030;7.024;2024-03-02T06:20:26;4.57;;;1.63;;
72127;SDS011;60000;51.030;7.024;2024-03-02T06:22:51;4.20;;;1.40;;
72127;SDS011;60000;51.030;7.024;2024-03-02T06:25:17;5.07;;;1.50;;
72127;SDS011;60000;51.030;7.024;2024-03-02T06:27:42;4.27;;;1.30;;
72127;SDS011;60000;51.030;7.024;2024-03-02T06:30:08;3.88;;;1.45;;
72127;SDS011;60000;51.030;7.024;2024-03-02T06:32:33;5.00;;;1.50;;
72127;SDS011;60000;51.030;7.024;2024-03-02T06:34:59;4.55;;;1.40;;
72127;SDS011;60000;51.030;7.024;2024-03-02T06:37:24;4.13;;;1.55;;
72127;SDS011;60000;51.030;7.024;2024-03-02T06:39:50;5.33;;;1.63;;
72127;SDS011;60000;51.030;7.024;2024-03-02T06:42:15;5.70;;;1.43;;
72127;SDS011;60000;51.030;7.024;2024-03-02T06:44:40;5.10;;;1.70;;
72127;SDS011;60000;51.030;7.024;2024-03-02T06:47:05;5.87;;;1.80;;
72127;SDS011;60000;51.030;7.024;2024-03-02T06:49:31;4.93;;;1.50;;
72127;SDS011;60000;51.030;7.024;2024-03-02T06:51:56;5.27;;;1.80;;
72127;SDS011;60000;51.030;7.024;2024-03-02T06:54:21;4.83;;;1.50;;
72127;SDS011;60000;51.030;7.024;2024-03-02T06:56:47;4.80;;;1.30;;
72127;SDS011;60000;51.030;7.024;2024-03-02T06:59:12;4.13;;;1.40;;
72127;SDS011;60000;51.030;7.024;2024-03-02T07:01:37;5.53;;;1.48;;
72127;SDS011;60000;51.030;7.024;2024-03-02T07:04:03;6.27;;;1.67;;
72127;SDS011;60000;51.030;7.024;2024-03-02T07:06:28;4.83;;;1.50;;
72127;SDS011;60000;51.030;7.024;2024-03-02T07:08:53;5.90;;;1.50;;
72127;SDS011;60000;51.030;7.024;2024-03-02T07:11:18;4.43;;;1.50;;
72127;SDS011;60000;51.030;7.024;2024-03-02T07:13:44;4.30;;;1.30;;
72127;SDS011;60000;51.030;7.024;2024-03-02T07:16:09;4.53;;;1.37;;
72127;SDS011;60000;51.030;7.024;2024-03-02T07:18:52;5.65;;;1.50;;
72127;SDS011;60000;51.030;7.024;2024-03-02T07:21:20;4.00;;;1.30;;
72127;SDS011;60000;51.030;7.024;2024-03-02T07:23:47;6.10;;;1.60;;
72127;SDS011;60000;51.030;7.024;2024-03-02T07:26:12;5.05;;;1.65;;
72127;SDS011;60000;51.030;7.024;2024-03-02T07:28:38;5.23;;;1.70;;
72127;SDS011;60000;51.030;7.024;2024-03-02T07:31:04;5.20;;;1.80;;
72127;SDS011;60000;51.030;7.024;2024-03-02T07:33:30;5.57;;;1.70;;
72127;SDS011;60000;51.030;7.024;2024-03-02T07:35:55;5.57;;;1.90;;
72127;SDS011;60000;51.030;7.024;2024-03-02T07:38:21;5.13;;;1.83;;
72127;SDS011;60000;51.030;7.024;2024-03-02T07:40:48;5.38;;;1.70;;
72127;SDS011;60000;51.030;7.024;2024-03-02T07:43:15;4.32;;;1.42;;
72127;SDS011;60000;51.030;7.024;2024-03-02T07:45:42;4.03;;;1.50;;
72127;SDS011;60000;51.030;7.024;2024-03-02T07:48:07;4.33;;;1.57;;
72127;SDS011;60000;51.030;7.024;2024-03-02T07:50:32;5.87;;;1.83;;
72127;SDS011;60000;51.030;7.024;2024-03-02T07:53:00;4.65;;;1.60;;
72127;SDS011;60000;51.030;7.024;2024-03-02T07:55:25;7.43;;;1.87;;
72127;SDS011;60000;51.030;7.024;2024-03-02T07:57:51;5.00;;;1.70;;
72127;SDS011;60000;51.030;7.024;2024-03-02T08:00:16;5.20;;;1.50;;
72127;SDS011;60000;51.030;7.024;2024-03-02T08:02:41;5.43;;;1.50;;
72127;SDS011;60000;51.030;7.024;2024-03-02T08:05:07;5.43;;;1.40;;
72127;SDS011;60000;51.030;7.024;2024-03-02T08:07:33;6.35;;;1.48;;
72127;SDS011;60000;51.030;7.024;2024-03-02T08:09:58;5.90;;;1.57;;
72127;SDS011;60000;51.030;7.024;2024-03-02T08:12:23;5.53;;;1.57;;
72127;SDS011;60000;51.030;7.024;2024-03-02T08:14:49;5.47;;;1.40;;
72127;SDS011;60000;51.030;7.024;2024-03-02T08:17:14;4.90;;;1.50;;
72127;SDS011;60000;51.030;7.024;2024-03-02T08:19:39;4.63;;;1.60;;
72127;SDS011;60000;51.030;7.024;2024-03-02T08:22:05;4.05;;;1.25;;
72127;SDS011;60000;51.030;7.024;2024-03-02T08:24:31;4.43;;;1.50;;
72127;SDS011;60000;51.030;7.024;2024-03-02T08:26:58;7.10;;;1.60;;
72127;SDS011;60000;51.030;7.024;2024-03-02T08:29:24;5.07;;;1.40;;
72127;SDS011;60000;51.030;7.024;2024-03-02T08:31:50;4.33;;;1.57;;
72127;SDS011;60000;51.030;7.024;2024-03-02T08:34:15;4.70;;;1.50;;
72127;SDS011;60000;51.030;7.024;2024-03-02T08:36:41;16.17;;;2.00;;
72127;SDS011;60000;51.030;7.024;2024-03-02T08:39:07;4.00;;;1.40;;
72127;SDS011;60000;51.030;7.024;2024-03-02T08:41:40;4.72;;;1.52;;
72127;SDS011;60000;51.030;7.024;2024-03-02T08:44:12;5.10;;;1.67;;
72127;SDS011;60000;51.030;7.024;2024-03-02T08:46:38;4.88;;;1.65;;
72127;SDS011;60000;51.030;7.024;2024-03-02T08:49:04;4.95;;;1.73;;
72127;SDS011;60000;51.030;7.024;2024-03-02T08:51:29;5.13;;;1.60;;
72127;SDS011;60000;51.030;7.024;2024-03-02T08:53:55;4.73;;;1.50;;
72127;SDS011;60000;51.030;7.024;2024-03-02T08:56:20;5.97;;;1.70;;
72127;SDS011;60000;51.030;7.024;2024-03-02T08:58:46;6.80;;;1.50;;
72127;SDS011;60000;51.030;7.024;2024-03-02T09:01:12;4.20;;;1.60;;
72127;SDS011;60000;51.030;7.024;2024-03-02T09:03:37;3.95;;;1.27;;
72127;SDS011;60000;51.030;7.024;2024-03-02T09:06:03;4.93;;;1.43;;
72127;SDS011;60000;51.030;7.024;2024-03-02T09:08:28;4.10;;;1.40;;
72127;SDS011;60000;51.030;7.024;2024-03-02T09:10:54;4.90;;;1.40;;
72127;SDS011;60000;51.030;7.024;2024-03-02T09:13:20;5.22;;;1.35;;
72127;SDS011;60000;51.030;7.024;2024-03-02T09:15:47;3.83;;;1.20;;
72127;SDS011;60000;51.030;7.024;2024-03-02T09:18:12;4.93;;;1.63;;
72127;SDS011;60000;51.030;7.024;2024-03-02T09:20:38;4.47;;;1.30;;
72127;SDS011;60000;51.030;7.024;2024-03-02T09:23:03;4.83;;;1.43;;
72127;SDS011;60000;51.030;7.024;2024-03-02T09:25:29;5.43;;;1.70;;
72127;SDS011;60000;51.030;7.024;2024-03-02T09:27:54;4.30;;;1.20;;
72127;SDS011;60000;51.030;7.024;2024-03-02T09:30:19;3.33;;;1.10;;
72127;SDS011;60000;51.030;7.024;2024-03-02T09:32:44;3.08;;;1.20;;
72127;SDS011;60000;51.030;7.024;2024-03-02T09:35:10;4.30;;;1.20;;
72127;SDS011;60000;51.030;7.024;2024-03-02T09:37:36;2.87;;;1.17;;
72127;SDS011;60000;51.030;7.024;2024-03-02T09:40:02;5.90;;;1.42;;
72127;SDS011;60000;51.030;7.024;2024-03-02T09:42:28;3.30;;;0.80;;
72127;SDS011;60000;51.030;7.024;2024-03-02T09:44:54;3.38;;;0.95;;
72127;SDS011;60000;51.030;7.024;2024-03-02T09:47:19;4.15;;;1.20;;
72127;SDS011;60000;51.030;7.024;2024-03-02T09:49:45;5.82;;;2.00;;
72127;SDS011;60000;51.030;7.024;2024-03-02T09:52:10;3.33;;;1.00;;
72127;SDS011;60000;51.030;7.024;2024-03-02T09:54:36;2.63;;;0.80;;
72127;SDS011;60000;51.030;7.024;2024-03-02T09:57:04;4.53;;;1.13;;
72127;SDS011;60000;51.030;7.024;2024-03-02T09:59:29;5.55;;;1.13;;
72127;SDS011;60000;51.030;7.024;2024-03-02T10:02:04;3.07;;;0.90;;
72127;SDS011;60000;51.030;7.024;2024-03-02T10:04:32;3.38;;;1.00;;
72127;SDS011;60000;51.030;7.024;2024-03-02T10:09:36;3.33;;;0.90;;
72127;SDS011;60000;51.030;7.024;2024-03-02T10:12:04;3.67;;;1.10;;
72127;SDS011;60000;51.030;7.024;2024-03-02T10:14:31;3.85;;;1.20;;
72127;SDS011;60000;51.030;7.024;2024-03-02T10:17:01;3.53;;;1.20;;
72127;SDS011;60000;51.030;7.024;2024-03-02T10:19:31;5.72;;;1.50;;
72127;SDS011;60000;51.030;7.024;2024-03-02T10:22:09;4.37;;;1.30;;
72127;SDS011;60000;51.030;7.024;2024-03-02T10:27:01;3.30;;;1.10;;
72127;SDS011;60000;51.030;7.024;2024-03-02T10:29:29;4.87;;;1.20;;
72127;SDS011;60000;51.030;7.024;2024-03-02T10:31:54;6.15;;;1.50;;
72127;SDS011;60000;51.030;7.024;2024-03-02T10:34:21;4.53;;;1.40;;
72127;SDS011;60000;51.030;7.024;2024-03-02T10:36:46;4.00;;;1.43;;
72127;SDS011;60000;51.030;7.024;2024-03-02T10:39:12;3.97;;;1.30;;
72127;SDS011;60000;51.030;7.024;2024-03-02T10:41:39;3.58;;;1.20;;
72127;SDS011;60000;51.030;7.024;2024-03-02T10:44:06;3.57;;;1.03;;
72127;SDS011;60000;51.030;7.024;2024-03-02T10:46:33;4.97;;;1.40;;
72127;SDS011;60000;51.030;7.024;2024-03-02T10:49:00;4.75;;;1.20;;
72127;SDS011;60000;51.030;7.024;2024-03-02T10:51:27;5.43;;;1.67;;
72127;SDS011;60000;51.030;7.024;2024-03-02T10:53:56;4.05;;;1.02;;
72127;SDS011;60000;51.030;7.024;2024-03-02T10:59:03;3.50;;;1.10;;
72127;SDS011;60000;51.030;7.024;2024-03-02T11:01:47;4.53;;;1.50;;
72127;SDS011;60000;51.030;7.024;2024-03-02T11:04:15;3.92;;;1.45;;
72127;SDS011;60000;51.030;7.024;2024-03-02T11:06:49;7.97;;;1.30;;
72127;SDS011;60000;51.030;7.024;2024-03-02T11:09:15;4.13;;;1.10;;
72127;SDS011;60000;51.030;7.024;2024-03-02T11:11:48;4.43;;;1.00;;
72127;SDS011;60000;51.030;7.024;2024-03-02T11:14:17;4.85;;;1.20;;
72127;SDS011;60000;51.030;7.024;2024-03-02T11:16:48;4.10;;;1.20;;
72127;SDS011;60000;51.030;7.024;2024-03-02T11:19:15;4.20;;;1.17;;
72127;SDS011;60000;51.030;7.024;2024-03-02T11:21:41;2.77;;;1.00;;
72127;SDS011;60000;51.030;7.024;2024-03-02T11:27:04;3.92;;;1.20;;
72127;SDS011;60000;51.030;7.024;2024-03-02T11:32:06;3.92;;;1.13;;
72127;SDS011;60000;51.030;7.024;2024-03-02T11:34:34;3.10;;;1.20;;
72127;SDS011;60000;51.030;7.024;2024-03-02T11:37:01;2.90;;;0.90;;
72127;SDS011;60000;51.030;7.024;2024-03-02T11:39:27;3.13;;;1.13;;
72127;SDS011;60000;51.030;7.024;2024-03-02T11:41:53;5.43;;;1.20;;
72127;SDS011;60000;51.030;7.024;2024-03-02T11:44:19;3.42;;;1.00;;
72127;SDS011;60000;51.030;7.024;2024-03-02T11:46:45;3.40;;;0.90;;
72127;SDS011;60000;51.030;7.024;2024-03-02T11:49:20;4.72;;;1.30;;
72127;SDS011;60000;51.030;7.024;2024-03-02T11:52:01;7.73;;;1.17;;
72127;SDS011;60000;51.030;7.024;2024-03-02T11:54:27;2.65;;;1.17;;
72127;SDS011;60000;51.030;7.024;2024-03-02T11:56:58;4.05;;;1.20;;
72127;SDS011;60000;51.030;7.024;2024-03-02T11:59:27;3.55;;;1.10;;
72127;SDS011;60000;51.030;7.024;2024-03-02T12:01:54;3.00;;;1.02;;
72127;SDS011;60000;51.030;7.024;2024-03-02T12:04:19;2.50;;;0.90;;
72127;SDS011;60000;51.030;7.024;2024-03-02T12:06:44;3.47;;;1.10;;
72127;SDS011;60000;51.030;7.024;2024-03-02T12:09:11;4.40;;;1.20;;
72127;SDS011;60000;51.030;7.024;2024-03-02T12:11:37;4.68;;;1.20;;
72127;SDS011;60000;51.030;7.024;2024-03-02T12:14:03;6.05;;;1.70;;
72127;SDS011;60000;51.030;7.024;2024-03-02T12:16:29;4.60;;;1.58;;
72127;SDS011;60000;51.030;7.024;2024-03-02T12:18:54;3.40;;;1.08;;
72127;SDS011;60000;51.030;7.024;2024-03-02T12:21:20;2.67;;;1.10;;
72127;SDS011;60000;51.030;7.024;2024-03-02T12:23:45;3.87;;;1.00;;
72127;SDS011;60000;51.030;7.024;2024-03-02T12:26:11;2.53;;;1.00;;
72127;SDS011;60000;51.030;7.024;2024-03-02T12:28:36;2.72;;;1.02;;
72127;SDS011;60000;51.030;7.024;2024-03-02T12:31:02;11.03;;;1.10;;
72127;SDS011;60000;51.030;7.024;2024-03-02T12:33:27;4.43;;;1.10;;
72127;SDS011;60000;51.030;7.024;2024-03-02T12:35:54;4.63;;;1.08;;
72127;SDS011;60000;51.030;7.024;2024-03-02T12:38:19;3.37;;;1.20;;
72127;SDS011;60000;51.030;7.024;2024-03-02T12:40:47;3.53;;;1.10;;
72127;SDS011;60000;51.030;7.024;2024-03-02T12:43:13;4.35;;;1.35;;
72127;SDS011;60000;51.030;7.024;2024-03-02T12:45:38;4.13;;;1.20;;
72127;SDS011;60000;51.030;7.024;2024-03-02T12:48:04;4.27;;;1.10;;
72127;SDS011;60000;51.030;7.024;2024-03-02T12:50:30;3.70;;;1.20;;
72127;SDS011;60000;51.030;7.024;2024-03-02T12:52:55;2.53;;;0.80;;
72127;SDS011;60000;51.030;7.024;2024-03-02T12:55:21;3.27;;;1.37;;
72127;SDS011;60000;51.030;7.024;2024-03-02T12:57:47;5.50;;;1.20;;
72127;SDS011;60000;51.030;7.024;2024-03-02T13:00:17;2.72;;;1.00;;
72127;SDS011;60000;51.030;7.024;2024-03-02T13:02:45;2.90;;;0.95;;
72127;SDS011;60000;51.030;7.024;2024-03-02T13:05:11;2.83;;;1.10;;
72127;SDS011;60000;51.030;7.024;2024-03-02T13:07:37;2.93;;;0.90;;
72127;SDS011;60000;51.030;7.024;2024-03-02T13:10:03;3.78;;;1.02;;
72127;SDS011;60000;51.030;7.024;2024-03-02T13:12:29;2.05;;;0.80;;
72127;SDS011;60000;51.030;7.024;2024-03-02T13:14:55;2.55;;;1.00;;
72127;SDS011;60000;51.030;7.024;2024-03-02T13:17:22;3.50;;;1.13;;
72127;SDS011;60000;51.030;7.024;2024-03-02T13:19:51;2.73;;;1.00;;
72127;SDS011;60000;51.030;7.024;2024-03-02T13:22:18;2.15;;;0.80;;
72127;SDS011;60000;51.030;7.024;2024-03-02T13:24:43;2.83;;;0.87;;
72127;SDS011;60000;51.030;7.024;2024-03-02T13:27:09;3.80;;;1.10;;
72127;SDS011;60000;51.030;7.024;2024-03-02T13:29:34;2.90;;;1.07;;
72127;SDS011;60000;51.030;7.024;2024-03-02T13:31:59;2.87;;;1.17;;
72127;SDS011;60000;51.030;7.024;2024-03-02T13:34:24;2.27;;;0.80;;
72127;SDS011;60000;51.030;7.024;2024-03-02T13:36:50;3.00;;;0.90;;
72127;SDS011;60000;51.030;7.024;2024-03-02T13:39:15;3.47;;;1.15;;
72127;SDS011;60000;51.030;7.024;2024-03-02T13:41:41;2.60;;;0.90;;
72127;SDS011;60000;51.030;7.024;2024-03-02T13:44:06;2.87;;;1.10;;
72127;SDS011;60000;51.030;7.024;2024-03-02T13:46:32;3.13;;;0.98;;
72127;SDS011;60000;51.030;7.024;2024-03-02T13:48:57;3.10;;;1.00;;
72127;SDS011;60000;51.030;7.024;2024-03-02T13:51:23;2.67;;;0.90;;
72127;SDS011;60000;51.030;7.024;2024-03-02T13:53:50;3.47;;;1.20;;
72127;SDS011;60000;51.030;7.024;2024-03-02T13:56:15;4.43;;;1.30;;
72127;SDS011;60000;51.030;7.024;2024-03-02T13:58:41;4.60;;;0.97;;
72127;SDS011;60000;51.030;7.024;2024-03-02T14:01:08;3.65;;;1.00;;
72127;SDS011;60000;51.030;7.024;2024-03-02T14:03:34;2.65;;;0.95;;
72127;SDS011;60000;51.030;7.024;2024-03-02T14:05:59;3.40;;;1.03;;
72127;SDS011;60000;51.030;7.024;2024-03-02T14:08:25;3.13;;;0.90;;
72127;SDS011;60000;51.030;7.024;2024-03-02T14:10:52;7.25;;;1.20;;
72127;SDS011;60000;51.030;7.024;2024-03-02T14:13:19;3.75;;;1.40;;
72127;SDS011;60000;51.030;7.024;2024-03-02T14:15:44;2.90;;;1.00;;
72127;SDS011;60000;51.030;7.024;2024-03-02T14:18:10;2.88;;;1.00;;
72127;SDS011;60000;51.030;7.024;2024-03-02T14:20:36;2.50;;;0.90;;
72127;SDS011;60000;51.030;7.024;2024-03-02T14:23:02;2.97;;;0.90;;
72127;SDS011;60000;51.030;7.024;2024-03-02T14:25:28;2.97;;;1.23;;
72127;SDS011;60000;51.030;7.024;2024-03-02T14:27:56;3.33;;;0.90;;
72127;SDS011;60000;51.030;7.024;2024-03-02T14:30:22;3.75;;;1.17;;
72127;SDS011;60000;51.030;7.024;2024-03-02T14:32:48;3.13;;;1.00;;
72127;SDS011;60000;51.030;7.024;2024-03-02T14:35:13;5.85;;;1.55;;
72127;SDS011;60000;51.030;7.024;2024-03-02T14:37:39;5.85;;;1.40;;
72127;SDS011;60000;51.030;7.024;2024-03-02T14:40:04;2.47;;;0.90;;
72127;SDS011;60000;51.030;7.024;2024-03-02T14:42:31;2.83;;;1.00;;
72127;SDS011;60000;51.030;7.024;2024-03-02T14:44:57;2.42;;;0.80;;
72127;SDS011;60000;51.030;7.024;2024-03-02T14:47:22;3.63;;;1.10;;
72127;SDS011;60000;51.030;7.024;2024-03-02T14:49:48;3.37;;;0.97;;
72127;SDS011;60000;51.030;7.024;2024-03-02T14:52:13;3.37;;;1.10;;
72127;SDS011;60000;51.030;7.024;2024-03-02T14:54:39;4.60;;;1.00;;
72127;SDS011;60000;51.030;7.024;2024-03-02T14:57:04;4.10;;;1.10;;
72127;SDS011;60000;51.030;7.024;2024-03-02T14:59:30;2.70;;;1.00;;
72127;SDS011;60000;51.030;7.024;2024-03-02T15:01:55;2.88;;;0.85;;
72127;SDS011;60000;51.030;7.024;2024-03-02T15:04:21;4.73;;;0.80;;